sensor_id;sensor_type;location;lat;lon;timestamp;temperature;humidity
25352;DHT22;13304;48.464;8.712;2023-07-29T00:01:58;20.10;92.00
25352;DHT22;13304;48.464;8.712;2023-07-29T00:04:24;20.10;92.00
25352;DHT22;13304;48.464;8.712;2023-07-29T00:06:50;20.00;92.00
25352;DHT22;13304;48.464;8.712;2023-07-29T00:09:15;20.00;92.10
25352;DHT22;13304;48.464;8.712;2023-07-29T00:11:41;20.00;92.00
25352;DHT22;13304;48.464;8.712;2023-07-29T00:14:06;20.00;92.00
25352;DHT22;13304;48.464;8.712;2023-07-29T00:16:32;20.00;92.00
25352;DHT22;13304;48.464;8.712;2023-07-29T00:18:58;20.00;92.10
25352;DHT22;13304;48.464;8.712;2023-07-29T00:21:23;20.00;92.10
25352;DHT22;13304;48.464;8.712;2023-07-29T00:23:49;19.90;92.10
25352;DHT22;13304;48.464;8.712;2023-07-29T00:26:15;20.00;92.20
25352;DHT22;13304;48.464;8.712;2023-07-29T00:28:40;20.00;92.30
25352;DHT22;13304;48.464;8.712;2023-07-29T00:31:06;19.90;92.50
25352;DHT22;13304;48.464;8.712;2023-07-29T00:33:32;19.90;92.20
25352;DHT22;13304;48.464;8.712;2023-07-29T00:35:57;19.90;92.20
25352;DHT22;13304;48.464;8.712;2023-07-29T00:38:27;19.90;92.30
25352;DHT22;13304;48.464;8.712;2023-07-29T00:40:52;19.90;92.30
25352;DHT22;13304;48.464;8.712;2023-07-29T00:43:18;19.90;92.30
25352;DHT22;13304;48.464;8.712;2023-07-29T00:45:44;19.90;92.40
25352;DHT22;13304;48.464;8.712;2023-07-29T00:48:10;19.90;92.50
25352;DHT22;13304;48.464;8.712;2023-07-29T00:50:36;19.90;92.50
25352;DHT22;13304;48.464;8.712;2023-07-29T00:53:02;19.90;92.50
25352;DHT22;13304;48.464;8.712;2023-07-29T00:55:28;19.90;92.60
25352;DHT22;13304;48.464;8.712;2023-07-29T00:57:54;19.90;92.60
25352;DHT22;13304;48.464;8.712;2023-07-29T01:00:20;19.90;92.60
25352;DHT22;13304;48.464;8.712;2023-07-29T01:02:47;19.90;92.50
25352;DHT22;13304;48.464;8.712;2023-07-29T01:05:15;19.90;92.40
25352;DHT22;13304;48.464;8.712;2023-07-29T01:08:00;19.90;92.30
25352;DHT22;13304;48.464;8.712;2023-07-29T01:13:13;19.90;92.20
25352;DHT22;13304;48.464;8.712;2023-07-29T01:15:56;19.80;92.10
25352;DHT22;13304;48.464;8.712;2023-07-29T01:18:28;19.80;92.20
25352;DHT22;13304;48.464;8.712;2023-07-29T01:20:58;19.80;92.20
25352;DHT22;13304;48.464;8.712;2023-07-29T01:23:26;19.80;92.20
25352;DHT22;13304;48.464;8.712;2023-07-29T01:25:54;19.80;92.20
25352;DHT22;13304;48.464;8.712;2023-07-29T01:28:20;19.70;92.20
25352;DHT22;13304;48.464;8.712;2023-07-29T01:30:49;19.70;92.20
25352;DHT22;13304;48.464;8.712;2023-07-29T01:33:26;19.70;92.50
25352;DHT22;13304;48.464;8.712;2023-07-29T01:36:07;19.70;92.00
25352;DHT22;13304;48.464;8.712;2023-07-29T01:38:38;19.70;92.10
25352;DHT22;13304;48.464;8.712;2023-07-29T01:41:07;19.70;92.10
25352;DHT22;13304;48.464;8.712;2023-07-29T01:43:34;19.70;92.10
25352;DHT22;13304;48.464;8.712;2023-07-29T01:46:04;19.60;92.10
25352;DHT22;13304;48.464;8.712;2023-07-29T01:48:30;19.60;92.10
25352;DHT22;13304;48.464;8.712;2023-07-29T01:50:57;19.60;92.20
25352;DHT22;13304;48.464;8.712;2023-07-29T01:53:23;19.50;92.20
25352;DHT22;13304;48.464;8.712;2023-07-29T01:55:49;19.50;92.30
25352;DHT22;13304;48.464;8.712;2023-07-29T01:58:14;19.50;92.30
25352;DHT22;13304;48.464;8.712;2023-07-29T02:00:40;19.50;92.30
25352;DHT22;13304;48.464;8.712;2023-07-29T02:03:06;19.50;92.40
25352;DHT22;13304;48.464;8.712;2023-07-29T02:05:31;19.50;92.40
25352;DHT22;13304;48.464;8.712;2023-07-29T02:07:57;19.40;92.40
25352;DHT22;13304;48.464;8.712;2023-07-29T02:10:22;19.40;92.40
25352;DHT22;13304;48.464;8.712;2023-07-29T02:12:48;19.40;92.40
25352;DHT22;13304;48.464;8.712;2023-07-29T02:15:14;19.40;92.50
25352;DHT22;13304;48.464;8.712;2023-07-29T02:17:42;19.40;92.40
25352;DHT22;13304;48.464;8.712;2023-07-29T02:20:08;19.30;92.30
25352;DHT22;13304;48.464;8.712;2023-07-29T02:22:36;19.30;92.40
25352;DHT22;13304;48.464;8.712;2023-07-29T02:25:01;19.30;92.50
25352;DHT22;13304;48.464;8.712;2023-07-29T02:27:28;19.30;92.60
25352;DHT22;13304;48.464;8.712;2023-07-29T02:29:54;19.30;92.70
25352;DHT22;13304;48.464;8.712;2023-07-29T02:32:20;19.30;92.70
25352;DHT22;13304;48.464;8.712;2023-07-29T02:34:46;19.30;92.70
25352;DHT22;13304;48.464;8.712;2023-07-29T02:37:11;19.30;92.70
25352;DHT22;13304;48.464;8.712;2023-07-29T02:39:37;19.30;92.80
25352;DHT22;13304;48.464;8.712;2023-07-29T02:42:03;19.30;92.80
25352;DHT22;13304;48.464;8.712;2023-07-29T02:44:29;19.30;92.90
25352;DHT22;13304;48.464;8.712;2023-07-29T02:46:54;19.30;93.00
25352;DHT22;13304;48.464;8.712;2023-07-29T02:49:22;19.30;93.00
25352;DHT22;13304;48.464;8.712;2023-07-29T02:51:47;19.30;93.10
25352;DHT22;13304;48.464;8.712;2023-07-29T02:54:13;19.40;93.20
25352;DHT22;13304;48.464;8.712;2023-07-29T02:56:38;19.40;93.20
25352;DHT22;13304;48.464;8.712;2023-07-29T02:59:04;19.40;93.20
25352;DHT22;13304;48.464;8.712;2023-07-29T03:01:30;19.40;93.20
25352;DHT22;13304;48.464;8.712;2023-07-29T03:03:56;19.50;93.30
25352;DHT22;13304;48.464;8.712;2023-07-29T03:06:21;19.50;93.30
25352;DHT22;13304;48.464;8.712;2023-07-29T03:08:47;19.50;93.30
25352;DHT22;13304;48.464;8.712;2023-07-29T03:11:14;19.50;93.20
25352;DHT22;13304;48.464;8.712;2023-07-29T03:13:40;19.50;93.10
25352;DHT22;13304;48.464;8.712;2023-07-29T03:16:07;19.60;93.10
25352;DHT22;13304;48.464;8.712;2023-07-29T03:18:33;19.50;93.00
25352;DHT22;13304;48.464;8.712;2023-07-29T03:20:58;19.60;93.00
25352;DHT22;13304;48.464;8.712;2023-07-29T03:23:24;19.60;93.00
25352;DHT22;13304;48.464;8.712;2023-07-29T03:25:50;19.50;92.90
25352;DHT22;13304;48.464;8.712;2023-07-29T03:28:22;19.50;92.90
25352;DHT22;13304;48.464;8.712;2023-07-29T03:30:48;19.50;92.90
25352;DHT22;13304;48.464;8.712;2023-07-29T03:33:14;19.50;92.90
25352;DHT22;13304;48.464;8.712;2023-07-29T03:35:39;19.50;92.90
25352;DHT22;13304;48.464;8.712;2023-07-29T03:38:05;19.50;93.00
25352;DHT22;13304;48.464;8.712;2023-07-29T03:40:30;19.50;93.00
25352;DHT22;13304;48.464;8.712;2023-07-29T03:42:56;19.50;93.10
25352;DHT22;13304;48.464;8.712;2023-07-29T03:45:22;19.50;93.10
25352;DHT22;13304;48.464;8.712;2023-07-29T03:47:47;19.50;93.10
25352;DHT22;13304;48.464;8.712;2023-07-29T03:50:13;19.50;93.10
25352;DHT22;13304;48.464;8.712;2023-07-29T03:52:38;19.50;93.20
25352;DHT22;13304;48.464;8.712;2023-07-29T03:55:04;19.50;93.20
25352;DHT22;13304;48.464;8.712;2023-07-29T03:57:30;19.60;93.20
25352;DHT22;13304;48.464;8.712;2023-07-29T03:59:56;19.60;93.20
25352;DHT22;13304;48.464;8.712;2023-07-29T04:02:21;19.60;93.30
25352;DHT22;13304;48.464;8.712;2023-07-29T04:04:47;19.60;93.20
25352;DHT22;13304;48.464;8.712;2023-07-29T04:07:13;19.60;93.20
25352;DHT22;13304;48.464;8.712;2023-07-29T04:09:39;19.70;93.20
25352;DHT22;13304;48.464;8.712;2023-07-29T04:12:05;19.70;93.20
25352;DHT22;13304;48.464;8.712;2023-07-29T04:14:31;19.70;93.20
25352;DHT22;13304;48.464;8.712;2023-07-29T04:16:57;19.70;93.20
25352;DHT22;13304;48.464;8.712;2023-07-29T04:19:23;19.70;93.20
25352;DHT22;13304;48.464;8.712;2023-07-29T04:21:48;19.70;93.20
25352;DHT22;13304;48.464;8.712;2023-07-29T04:24:16;19.70;93.20
25352;DHT22;13304;48.464;8.712;2023-07-29T04:26:41;19.70;93.20
25352;DHT22;13304;48.464;8.712;2023-07-29T04:29:07;19.70;93.20
25352;DHT22;13304;48.464;8.712;2023-07-29T04:31:33;19.80;93.30
25352;DHT22;13304;48.464;8.712;2023-07-29T04:33:58;19.70;93.20
25352;DHT22;13304;48.464;8.712;2023-07-29T04:36:24;19.70;93.10
25352;DHT22;13304;48.464;8.712;2023-07-29T04:38:49;19.70;93.10
25352;DHT22;13304;48.464;8.712;2023-07-29T04:41:15;19.70;93.20
25352;DHT22;13304;48.464;8.712;2023-07-29T04:43:41;19.70;93.30
25352;DHT22;13304;48.464;8.712;2023-07-29T04:46:07;19.70;93.40
25352;DHT22;13304;48.464;8.712;2023-07-29T04:48:34;19.70;93.50
25352;DHT22;13304;48.464;8.712;2023-07-29T04:50:59;19.60;93.70
25352;DHT22;13304;48.464;8.712;2023-07-29T04:53:25;19.60;93.80
25352;DHT22;13304;48.464;8.712;2023-07-29T04:55:51;19.60;94.00
25352;DHT22;13304;48.464;8.712;2023-07-29T04:58:16;19.60;94.10
25352;DHT22;13304;48.464;8.712;2023-07-29T05:00:42;19.60;94.30
25352;DHT22;13304;48.464;8.712;2023-07-29T05:03:07;19.60;94.40
25352;DHT22;13304;48.464;8.712;2023-07-29T05:05:33;19.60;94.60
25352;DHT22;13304;48.464;8.712;2023-07-29T05:07:59;19.60;94.60
25352;DHT22;13304;48.464;8.712;2023-07-29T05:10:24;19.70;94.70
25352;DHT22;13304;48.464;8.712;2023-07-29T05:12:50;19.70;94.80
25352;DHT22;13304;48.464;8.712;2023-07-29T05:15:16;19.70;94.80
25352;DHT22;13304;48.464;8.712;2023-07-29T05:17:42;19.70;94.90
25352;DHT22;13304;48.464;8.712;2023-07-29T05:20:08;19.70;94.90
25352;DHT22;13304;48.464;8.712;2023-07-29T05:22:33;19.70;94.90
25352;DHT22;13304;48.464;8.712;2023-07-29T05:24:59;19.70;94.90
25352;DHT22;13304;48.464;8.712;2023-07-29T05:27:25;19.70;95.00
25352;DHT22;13304;48.464;8.712;2023-07-29T05:29:50;19.80;95.00
25352;DHT22;13304;48.464;8.712;2023-07-29T05:32:16;19.80;95.10
25352;DHT22;13304;48.464;8.712;2023-07-29T05:34:42;19.80;95.10
25352;DHT22;13304;48.464;8.712;2023-07-29T05:37:07;19.80;95.10
25352;DHT22;13304;48.464;8.712;2023-07-29T05:39:33;19.90;95.20
25352;DHT22;13304;48.464;8.712;2023-07-29T05:41:59;19.90;95.30
25352;DHT22;13304;48.464;8.712;2023-07-29T05:44:28;19.90;95.30
25352;DHT22;13304;48.464;8.712;2023-07-29T05:46:53;19.90;95.40
25352;DHT22;13304;48.464;8.712;2023-07-29T05:49:19;20.00;95.50
25352;DHT22;13304;48.464;8.712;2023-07-29T05:51:44;20.00;95.50
25352;DHT22;13304;48.464;8.712;2023-07-29T05:54:10;20.00;95.50
25352;DHT22;13304;48.464;8.712;2023-07-29T05:56:36;20.10;95.40
25352;DHT22;13304;48.464;8.712;2023-07-29T05:59:01;20.10;95.30
25352;DHT22;13304;48.464;8.712;2023-07-29T06:01:27;20.10;95.30
25352;DHT22;13304;48.464;8.712;2023-07-29T06:03:52;20.10;95.30
25352;DHT22;13304;48.464;8.712;2023-07-29T06:06:18;20.20;95.30
25352;DHT22;13304;48.464;8.712;2023-07-29T06:08:44;20.20;95.30
25352;DHT22;13304;48.464;8.712;2023-07-29T06:11:09;20.20;95.40
25352;DHT22;13304;48.464;8.712;2023-07-29T06:13:35;20.20;95.60
25352;DHT22;13304;48.464;8.712;2023-07-29T06:16:00;20.30;95.60
25352;DHT22;13304;48.464;8.712;2023-07-29T06:18:26;20.30;95.60
25352;DHT22;13304;48.464;8.712;2023-07-29T06:20:52;20.30;95.60
25352;DHT22;13304;48.464;8.712;2023-07-29T06:23:18;20.40;95.60
25352;DHT22;13304;48.464;8.712;2023-07-29T06:25:43;20.40;95.60
25352;DHT22;13304;48.464;8.712;2023-07-29T06:28:09;20.40;95.90
25352;DHT22;13304;48.464;8.712;2023-07-29T06:30:35;20.40;95.40
25352;DHT22;13304;48.464;8.712;2023-07-29T06:33:00;20.50;95.40
25352;DHT22;13304;48.464;8.712;2023-07-29T06:35:28;20.40;95.40
25352;DHT22;13304;48.464;8.712;2023-07-29T06:37:54;20.40;95.30
25352;DHT22;13304;48.464;8.712;2023-07-29T06:40:19;20.40;95.30
25352;DHT22;13304;48.464;8.712;2023-07-29T06:42:45;20.40;95.40
25352;DHT22;13304;48.464;8.712;2023-07-29T06:45:11;20.40;95.40
25352;DHT22;13304;48.464;8.712;2023-07-29T06:47:37;20.40;95.40
25352;DHT22;13304;48.464;8.712;2023-07-29T06:50:03;20.40;95.50
25352;DHT22;13304;48.464;8.712;2023-07-29T06:52:29;20.40;95.60
25352;DHT22;13304;48.464;8.712;2023-07-29T06:54:55;20.30;95.70
25352;DHT22;13304;48.464;8.712;2023-07-29T06:57:20;20.40;95.90
25352;DHT22;13304;48.464;8.712;2023-07-29T06:59:46;20.40;96.00
25352;DHT22;13304;48.464;8.712;2023-07-29T07:02:11;20.30;96.40
25352;DHT22;13304;48.464;8.712;2023-07-29T07:04:37;20.40;96.20
25352;DHT22;13304;48.464;8.712;2023-07-29T07:07:03;20.40;96.40
25352;DHT22;13304;48.464;8.712;2023-07-29T07:09:28;20.40;96.50
25352;DHT22;13304;48.464;8.712;2023-07-29T07:11:54;20.40;96.60
25352;DHT22;13304;48.464;8.712;2023-07-29T07:14:20;20.50;96.70
25352;DHT22;13304;48.464;8.712;2023-07-29T07:16:45;20.50;96.70
25352;DHT22;13304;48.464;8.712;2023-07-29T07:19:11;20.50;96.90
25352;DHT22;13304;48.464;8.712;2023-07-29T07:21:36;20.50;97.10
25352;DHT22;13304;48.464;8.712;2023-07-29T07:24:02;20.60;97.30
25352;DHT22;13304;48.464;8.712;2023-07-29T07:26:28;20.70;97.40
25352;DHT22;13304;48.464;8.712;2023-07-29T07:28:53;20.70;97.40
25352;DHT22;13304;48.464;8.712;2023-07-29T07:31:19;20.80;97.20
25352;DHT22;13304;48.464;8.712;2023-07-29T07:33:45;20.80;97.00
25352;DHT22;13304;48.464;8.712;2023-07-29T07:36:11;20.80;96.90
25352;DHT22;13304;48.464;8.712;2023-07-29T07:38:36;20.90;96.80
25352;DHT22;13304;48.464;8.712;2023-07-29T07:41:02;20.90;96.70
25352;DHT22;13304;48.464;8.712;2023-07-29T07:43:28;20.90;96.80
25352;DHT22;13304;48.464;8.712;2023-07-29T07:46:01;20.90;96.80
25352;DHT22;13304;48.464;8.712;2023-07-29T07:48:27;21.00;96.80
25352;DHT22;13304;48.464;8.712;2023-07-29T07:50:53;21.00;97.00
25352;DHT22;13304;48.464;8.712;2023-07-29T07:53:19;21.10;97.00
25352;DHT22;13304;48.464;8.712;2023-07-29T07:55:45;21.10;96.90
25352;DHT22;13304;48.464;8.712;2023-07-29T07:58:11;21.20;96.80
25352;DHT22;13304;48.464;8.712;2023-07-29T08:00:36;21.20;96.70
25352;DHT22;13304;48.464;8.712;2023-07-29T08:03:02;21.20;96.70
25352;DHT22;13304;48.464;8.712;2023-07-29T08:05:28;21.20;96.70
25352;DHT22;13304;48.464;8.712;2023-07-29T08:07:54;21.20;96.70
25352;DHT22;13304;48.464;8.712;2023-07-29T08:10:19;21.30;96.80
25352;DHT22;13304;48.464;8.712;2023-07-29T08:12:45;21.30;97.00
25352;DHT22;13304;48.464;8.712;2023-07-29T08:15:11;21.30;97.00
25352;DHT22;13304;48.464;8.712;2023-07-29T08:17:36;21.40;97.00
25352;DHT22;13304;48.464;8.712;2023-07-29T08:20:02;21.40;96.90
25352;DHT22;13304;48.464;8.712;2023-07-29T08:22:28;21.40;96.80
25352;DHT22;13304;48.464;8.712;2023-07-29T08:24:53;21.40;96.90
25352;DHT22;13304;48.464;8.712;2023-07-29T08:27:19;21.50;97.00
25352;DHT22;13304;48.464;8.712;2023-07-29T08:29:45;21.50;97.20
25352;DHT22;13304;48.464;8.712;2023-07-29T08:32:10;21.50;97.20
25352;DHT22;13304;48.464;8.712;2023-07-29T08:34:36;21.50;97.00
25352;DHT22;13304;48.464;8.712;2023-07-29T08:37:02;21.50;97.10
25352;DHT22;13304;48.464;8.712;2023-07-29T08:39:27;21.50;97.20
25352;DHT22;13304;48.464;8.712;2023-07-29T08:42:08;21.60;97.30
25352;DHT22;13304;48.464;8.712;2023-07-29T08:44:43;21.60;97.10
25352;DHT22;13304;48.464;8.712;2023-07-29T08:47:09;21.70;97.90
25352;DHT22;13304;48.464;8.712;2023-07-29T08:49:36;21.70;97.90
25352;DHT22;13304;48.464;8.712;2023-07-29T08:52:03;21.80;97.80
25352;DHT22;13304;48.464;8.712;2023-07-29T08:54:29;21.90;97.70
25352;DHT22;13304;48.464;8.712;2023-07-29T08:56:55;22.00;97.40
25352;DHT22;13304;48.464;8.712;2023-07-29T08:59:21;22.00;96.80
25352;DHT22;13304;48.464;8.712;2023-07-29T09:01:47;22.10;96.60
25352;DHT22;13304;48.464;8.712;2023-07-29T09:04:13;22.10;97.00
25352;DHT22;13304;48.464;8.712;2023-07-29T09:06:39;22.20;96.80
25352;DHT22;13304;48.464;8.712;2023-07-29T09:09:07;22.20;96.60
25352;DHT22;13304;48.464;8.712;2023-07-29T09:11:33;22.20;96.40
25352;DHT22;13304;48.464;8.712;2023-07-29T09:13:59;22.30;96.40
25352;DHT22;13304;48.464;8.712;2023-07-29T09:16:24;22.30;96.40
25352;DHT22;13304;48.464;8.712;2023-07-29T09:18:51;22.40;96.40
25352;DHT22;13304;48.464;8.712;2023-07-29T09:21:18;22.50;96.40
25352;DHT22;13304;48.464;8.712;2023-07-29T09:23:48;22.50;96.60
25352;DHT22;13304;48.464;8.712;2023-07-29T09:26:24;22.60;96.20
25352;DHT22;13304;48.464;8.712;2023-07-29T09:28:53;22.60;95.10
25352;DHT22;13304;48.464;8.712;2023-07-29T09:31:20;22.70;95.20
25352;DHT22;13304;48.464;8.712;2023-07-29T09:33:46;22.80;95.30
25352;DHT22;13304;48.464;8.712;2023-07-29T09:36:15;22.80;95.00
25352;DHT22;13304;48.464;8.712;2023-07-29T09:38:40;22.80;94.40
25352;DHT22;13304;48.464;8.712;2023-07-29T09:41:06;22.90;94.70
25352;DHT22;13304;48.464;8.712;2023-07-29T09:43:33;22.90;94.20
25352;DHT22;13304;48.464;8.712;2023-07-29T09:46:03;23.00;93.80
25352;DHT22;13304;48.464;8.712;2023-07-29T09:48:33;23.00;93.50
25352;DHT22;13304;48.464;8.712;2023-07-29T09:50:59;23.00;93.00
25352;DHT22;13304;48.464;8.712;2023-07-29T09:53:25;23.10;93.10
25352;DHT22;13304;48.464;8.712;2023-07-29T09:55:53;23.10;92.40
25352;DHT22;13304;48.464;8.712;2023-07-29T09:58:28;23.10;91.80
25352;DHT22;13304;48.464;8.712;2023-07-29T10:00:54;23.20;91.30
25352;DHT22;13304;48.464;8.712;2023-07-29T10:03:21;23.20;92.10
25352;DHT22;13304;48.464;8.712;2023-07-29T10:05:47;23.30;91.70
25352;DHT22;13304;48.464;8.712;2023-07-29T10:08:14;23.30;91.90
25352;DHT22;13304;48.464;8.712;2023-07-29T10:10:43;23.30;91.50
25352;DHT22;13304;48.464;8.712;2023-07-29T10:13:09;23.30;90.60
25352;DHT22;13304;48.464;8.712;2023-07-29T10:15:36;23.30;90.60
25352;DHT22;13304;48.464;8.712;2023-07-29T10:18:01;23.40;90.70
25352;DHT22;13304;48.464;8.712;2023-07-29T10:20:30;23.40;90.10
25352;DHT22;13304;48.464;8.712;2023-07-29T10:22:56;23.50;88.40
25352;DHT22;13304;48.464;8.712;2023-07-29T10:25:38;23.50;89.00
25352;DHT22;13304;48.464;8.712;2023-07-29T10:28:05;23.50;88.10
25352;DHT22;13304;48.464;8.712;2023-07-29T10:30:32;23.60;90.10
25352;DHT22;13304;48.464;8.712;2023-07-29T10:33:02;23.60;89.30
25352;DHT22;13304;48.464;8.712;2023-07-29T10:35:28;23.60;87.10
25352;DHT22;13304;48.464;8.712;2023-07-29T10:37:55;23.60;87.70
25352;DHT22;13304;48.464;8.712;2023-07-29T10:40:21;23.70;87.80
25352;DHT22;13304;48.464;8.712;2023-07-29T10:43:11;23.70;87.60
25352;DHT22;13304;48.464;8.712;2023-07-29T10:45:41;23.70;83.90
25352;DHT22;13304;48.464;8.712;2023-07-29T10:53:47;23.90;83.80
25352;DHT22;13304;48.464;8.712;2023-07-29T10:56:13;24.00;86.40
25352;DHT22;13304;48.464;8.712;2023-07-29T10:58:38;24.20;85.90
25352;DHT22;13304;48.464;8.712;2023-07-29T11:01:13;24.20;85.30
25352;DHT22;13304;48.464;8.712;2023-07-29T11:03:38;24.20;83.60
25352;DHT22;13304;48.464;8.712;2023-07-29T11:06:04;24.30;85.40
25352;DHT22;13304;48.464;8.712;2023-07-29T11:08:31;24.30;84.40
25352;DHT22;13304;48.464;8.712;2023-07-29T11:11:07;24.30;84.10
25352;DHT22;13304;48.464;8.712;2023-07-29T11:13:37;24.40;84.20
25352;DHT22;13304;48.464;8.712;2023-07-29T11:16:04;24.40;83.30
25352;DHT22;13304;48.464;8.712;2023-07-29T11:18:34;24.50;84.60
25352;DHT22;13304;48.464;8.712;2023-07-29T11:21:02;24.50;84.60
25352;DHT22;13304;48.464;8.712;2023-07-29T11:23:35;24.50;84.60
25352;DHT22;13304;48.464;8.712;2023-07-29T11:26:02;24.50;85.20
25352;DHT22;13304;48.464;8.712;2023-07-29T11:28:29;24.60;85.10
25352;DHT22;13304;48.464;8.712;2023-07-29T11:30:58;24.60;84.60
25352;DHT22;13304;48.464;8.712;2023-07-29T11:33:25;24.60;82.50
25352;DHT22;13304;48.464;8.712;2023-07-29T11:35:53;24.50;82.10
25352;DHT22;13304;48.464;8.712;2023-07-29T11:38:20;24.60;83.30
25352;DHT22;13304;48.464;8.712;2023-07-29T11:40:58;24.60;82.80
25352;DHT22;13304;48.464;8.712;2023-07-29T11:43:24;24.50;81.70
25352;DHT22;13304;48.464;8.712;2023-07-29T11:45:51;24.60;84.10
25352;DHT22;13304;48.464;8.712;2023-07-29T11:48:17;24.60;84.60
25352;DHT22;13304;48.464;8.712;2023-07-29T11:50:43;24.60;84.50
25352;DHT22;13304;48.464;8.712;2023-07-29T11:53:08;24.60;83.80
25352;DHT22;13304;48.464;8.712;2023-07-29T11:55:35;24.70;83.80
25352;DHT22;13304;48.464;8.712;2023-07-29T11:58:01;24.80;84.80
25352;DHT22;13304;48.464;8.712;2023-07-29T12:00:27;24.80;82.10
25352;DHT22;13304;48.464;8.712;2023-07-29T12:02:52;24.80;79.70
25352;DHT22;13304;48.464;8.712;2023-07-29T12:05:20;24.80;81.20
25352;DHT22;13304;48.464;8.712;2023-07-29T12:07:47;24.90;80.80
25352;DHT22;13304;48.464;8.712;2023-07-29T12:10:13;24.90;81.00
25352;DHT22;13304;48.464;8.712;2023-07-29T12:12:46;25.00;80.00
25352;DHT22;13304;48.464;8.712;2023-07-29T12:15:13;25.00;80.00
25352;DHT22;13304;48.464;8.712;2023-07-29T12:17:42;25.10;79.10
25352;DHT22;13304;48.464;8.712;2023-07-29T12:20:09;25.10;77.00
25352;DHT22;13304;48.464;8.712;2023-07-29T12:22:35;25.00;74.80
25352;DHT22;13304;48.464;8.712;2023-07-29T12:25:02;25.10;77.20
25352;DHT22;13304;48.464;8.712;2023-07-29T12:27:30;25.10;76.40
25352;DHT22;13304;48.464;8.712;2023-07-29T12:30:00;25.10;74.90
25352;DHT22;13304;48.464;8.712;2023-07-29T12:32:29;25.00;75.80
25352;DHT22;13304;48.464;8.712;2023-07-29T12:34:55;25.10;75.30
25352;DHT22;13304;48.464;8.712;2023-07-29T12:37:31;25.10;75.00
25352;DHT22;13304;48.464;8.712;2023-07-29T12:39:57;25.00;75.20
25352;DHT22;13304;48.464;8.712;2023-07-29T12:42:23;25.10;76.60
25352;DHT22;13304;48.464;8.712;2023-07-29T12:44:48;25.10;75.20
25352;DHT22;13304;48.464;8.712;2023-07-29T12:47:14;25.10;75.20
25352;DHT22;13304;48.464;8.712;2023-07-29T12:49:40;25.10;75.20
25352;DHT22;13304;48.464;8.712;2023-07-29T12:52:05;25.10;73.20
25352;DHT22;13304;48.464;8.712;2023-07-29T12:54:31;25.10;74.80
25352;DHT22;13304;48.464;8.712;2023-07-29T12:56:57;25.10;75.00
25352;DHT22;13304;48.464;8.712;2023-07-29T12:59:22;25.20;74.00
25352;DHT22;13304;48.464;8.712;2023-07-29T13:01:48;25.20;74.30
25352;DHT22;13304;48.464;8.712;2023-07-29T13:04:13;25.30;74.20
25352;DHT22;13304;48.464;8.712;2023-07-29T13:06:39;25.30;71.80
25352;DHT22;13304;48.464;8.712;2023-07-29T13:09:05;25.40;71.10
25352;DHT22;13304;48.464;8.712;2023-07-29T13:11:31;25.40;71.20
25352;DHT22;13304;48.464;8.712;2023-07-29T13:14:00;25.50;69.10
25352;DHT22;13304;48.464;8.712;2023-07-29T13:16:26;25.50;70.10
25352;DHT22;13304;48.464;8.712;2023-07-29T13:18:52;25.50;71.00
25352;DHT22;13304;48.464;8.712;2023-07-29T13:21:18;25.50;70.50
25352;DHT22;13304;48.464;8.712;2023-07-29T13:23:43;25.50;69.10
25352;DHT22;13304;48.464;8.712;2023-07-29T13:26:09;25.50;69.50
25352;DHT22;13304;48.464;8.712;2023-07-29T13:28:36;25.50;69.20
25352;DHT22;13304;48.464;8.712;2023-07-29T13:31:02;25.50;70.50
25352;DHT22;13304;48.464;8.712;2023-07-29T13:33:28;25.50;69.40
25352;DHT22;13304;48.464;8.712;2023-07-29T13:35:54;25.50;69.80
25352;DHT22;13304;48.464;8.712;2023-07-29T13:38:19;25.50;69.90
25352;DHT22;13304;48.464;8.712;2023-07-29T13:40:45;25.50;71.20
25352;DHT22;13304;48.464;8.712;2023-07-29T13:43:11;25.50;71.50
25352;DHT22;13304;48.464;8.712;2023-07-29T13:45:36;25.50;71.20
25352;DHT22;13304;48.464;8.712;2023-07-29T13:48:03;25.50;72.20
25352;DHT22;13304;48.464;8.712;2023-07-29T13:50:28;25.50;70.90
25352;DHT22;13304;48.464;8.712;2023-07-29T13:52:56;25.50;70.10
25352;DHT22;13304;48.464;8.712;2023-07-29T13:55:22;25.50;71.00
25352;DHT22;13304;48.464;8.712;2023-07-29T13:57:47;25.50;71.00
25352;DHT22;13304;48.464;8.712;2023-07-29T14:00:13;25.50;68.90
25352;DHT22;13304;48.464;8.712;2023-07-29T14:02:39;25.50;70.20
25352;DHT22;13304;48.464;8.712;2023-07-29T14:05:05;25.50;69.60
25352;DHT22;13304;48.464;8.712;2023-07-29T14:07:32;25.50;71.70
25352;DHT22;13304;48.464;8.712;2023-07-29T14:09:58;25.50;71.30
25352;DHT22;13304;48.464;8.712;2023-07-29T14:12:23;25.60;70.20
25352;DHT22;13304;48.464;8.712;2023-07-29T14:14:49;25.60;69.30
25352;DHT22;13304;48.464;8.712;2023-07-29T14:17:14;25.60;69.30
25352;DHT22;13304;48.464;8.712;2023-07-29T14:19:40;25.70;69.20
25352;DHT22;13304;48.464;8.712;2023-07-29T14:22:06;25.70;69.40
25352;DHT22;13304;48.464;8.712;2023-07-29T14:24:31;25.70;69.80
25352;DHT22;13304;48.464;8.712;2023-07-29T14:26:57;25.70;68.50
25352;DHT22;13304;48.464;8.712;2023-07-29T14:29:22;25.70;69.60
25352;DHT22;13304;48.464;8.712;2023-07-29T14:31:48;25.70;67.90
25352;DHT22;13304;48.464;8.712;2023-07-29T14:34:14;25.80;67.90
25352;DHT22;13304;48.464;8.712;2023-07-29T14:36:39;25.80;68.00
25352;DHT22;13304;48.464;8.712;2023-07-29T14:39:05;25.80;67.50
25352;DHT22;13304;48.464;8.712;2023-07-29T14:41:31;25.80;68.20
25352;DHT22;13304;48.464;8.712;2023-07-29T14:43:56;25.90;67.90
25352;DHT22;13304;48.464;8.712;2023-07-29T14:46:22;25.90;67.40
25352;DHT22;13304;48.464;8.712;2023-07-29T14:48:48;25.90;67.20
25352;DHT22;13304;48.464;8.712;2023-07-29T14:51:14;25.90;68.10
25352;DHT22;13304;48.464;8.712;2023-07-29T14:53:40;25.90;69.30
25352;DHT22;13304;48.464;8.712;2023-07-29T14:56:05;25.90;68.20
25352;DHT22;13304;48.464;8.712;2023-07-29T14:58:31;25.80;67.90
25352;DHT22;13304;48.464;8.712;2023-07-29T15:00:57;25.80;67.00
25352;DHT22;13304;48.464;8.712;2023-07-29T15:03:23;25.70;66.80
25352;DHT22;13304;48.464;8.712;2023-07-29T15:05:49;25.80;66.40
25352;DHT22;13304;48.464;8.712;2023-07-29T15:08:15;25.70;65.60
25352;DHT22;13304;48.464;8.712;2023-07-29T15:10:40;25.70;65.10
25352;DHT22;13304;48.464;8.712;2023-07-29T15:13:06;25.70;65.50
25352;DHT22;13304;48.464;8.712;2023-07-29T15:15:32;25.60;65.10
25352;DHT22;13304;48.464;8.712;2023-07-29T15:17:57;25.60;65.70
25352;DHT22;13304;48.464;8.712;2023-07-29T15:20:23;25.50;65.60
25352;DHT22;13304;48.464;8.712;2023-07-29T15:22:49;25.50;65.30
25352;DHT22;13304;48.464;8.712;2023-07-29T15:25:17;25.50;65.40
25352;DHT22;13304;48.464;8.712;2023-07-29T15:27:43;25.50;65.90
25352;DHT22;13304;48.464;8.712;2023-07-29T15:30:09;25.50;66.80
25352;DHT22;13304;48.464;8.712;2023-07-29T15:32:37;25.50;66.80
25352;DHT22;13304;48.464;8.712;2023-07-29T15:35:03;25.50;68.00